Ossian — WDF2623 — position and weather

sailwx.info

Track history (hours):
 
Tides and Currents Weather Stations Pressure Air Temp Water Temp Dewpoint Dewpoint Depression Visibility Wind Speed Wind Dir Waves Ship Positions

Ossian

Owner: Hartzell, Scott R, Florence, OR. More information available from US FCC via Universal Licensing System and Coast Guard Vessel Documentation Center.

Last reported at 2017-Aug-20 20:25 UTC. Time now 2017-Aug-22 05:16 UTC.
Position N 42°60' W 124°56'.

Length 26 m.

Type: Fishing. MMSI: 366773410.

Date/timePositionNaut miles runAvg speedWind from/ knotsBaromVisibWave heightAir tempDewpointWater temp
2017-Aug-20 20:25N 42°60' W 124°56'1 2.0
2017-Aug-20 19:56N 42°60' W 124°58'1 0.4
2017-Aug-20 18:23N 43°00' W 124°57'10 0.7
2017-Aug-20 03:29N 43°10' W 124°60'6 0.1
2017-Aug-18 09:52N 43°04' W 124°57'0 0.7
2017-Aug-18 09:28N 43°04' W 124°57'2 0.8
2017-Aug-18 07:00N 43°06' W 124°58'2 0.9
2017-Aug-18 05:17N 43°08' W 124°58'5 0.1
2017-Aug-16 01:37N 43°02' W 124°58'0 1.2
2017-Aug-16 01:29N 43°03' W 124°58'3 5.4
2017-Aug-16 00:51N 43°06' W 124°59'0 0.6
2017-Aug-16 00:31N 43°06' W 124°59'2 3.3
2017-Aug-15 23:59N 43°04' W 124°59'5 4.9
2017-Aug-15 22:55N 43°10' W 125°00'0 0.5
2017-Aug-15 22:27N 43°10' W 124°60'4 0.4
2017-Aug-15 11:30N 43°06' W 124°60'0 0.2
2017-Aug-15 10:23N 43°06' W 124°60'0 0.2
2017-Aug-15 09:36N 43°06' W 124°60'0 0.2
2017-Aug-15 09:28N 43°06' W 124°60'0 0.5
2017-Aug-15 08:59N 43°06' W 124°59'  
Track history (hours):
 
Tides and Currents Weather Stations Pressure Air Temp Water Temp Dewpoint Dewpoint Depression Visibility Wind Speed Wind Dir Waves Ship Positions

Ossian

Owner: Hartzell, Scott R, Florence, OR. More information available from US FCC via Universal Licensing System and Coast Guard Vessel Documentation Center.

Last reported at 2017-Aug-20 20:25 UTC. Time now 2017-Aug-22 05:16 UTC.
Position N 42°60' W 124°56'.

Length 26 m.

Type: Fishing. MMSI: 366773410.

Date/timePositionNaut miles runAvg speedWind from/ knotsBaromVisibWave heightAir tempDewpointWater temp
2017-Aug-20 20:25N 42°60' W 124°56'1 2.0
2017-Aug-20 19:56N 42°60' W 124°58'1 0.4
2017-Aug-20 18:23N 43°00' W 124°57'10 0.7
2017-Aug-20 03:29N 43°10' W 124°60'6 0.1
2017-Aug-18 09:52N 43°04' W 124°57'0 0.7
2017-Aug-18 09:28N 43°04' W 124°57'2 0.8
2017-Aug-18 07:00N 43°06' W 124°58'2 0.9
2017-Aug-18 05:17N 43°08' W 124°58'5 0.1
2017-Aug-16 01:37N 43°02' W 124°58'0 1.2
2017-Aug-16 01:29N 43°03' W 124°58'3 5.4
2017-Aug-16 00:51N 43°06' W 124°59'0 0.6
2017-Aug-16 00:31N 43°06' W 124°59'2 3.3
2017-Aug-15 23:59N 43°04' W 124°59'5 4.9
2017-Aug-15 22:55N 43°10' W 125°00'0 0.5
2017-Aug-15 22:27N 43°10' W 124°60'4 0.4
2017-Aug-15 11:30N 43°06' W 124°60'0 0.2
2017-Aug-15 10:23N 43°06' W 124°60'0 0.2
2017-Aug-15 09:36N 43°06' W 124°60'0 0.2
2017-Aug-15 09:28N 43°06' W 124°60'0 0.5
2017-Aug-15 08:59N 43°06' W 124°59'  

Dump ship's entire track history